Time;durP1;ratioP1;P1;durP2;ratioP2;P2;SDS_P1;SDS_P2;PMS_P1;PMS_P2;Temp;Humidity;BMP_temperature;BMP_pressure;BME280_temperature;BME280_humidity;BME280_pressure;Samples;Min_cycle;Max_cycle;Signal;HPM_P1;HPM_P2
2021/07/19 00:00:18;;;;;;;17.80;13.90;;;;;;;21.73;89.16;99594.00;5053574;28;20045;-79
2021/07/19 00:02:47;;;;;;;18.00;13.43;;;;;;;21.83;88.47;99594.59;5056842;28;20057;-78
2021/07/19 00:05:17;;;;;;;17.88;12.73;;;;;;;21.88;88.12;99598.44;5056571;28;20131;-79
2021/07/19 00:07:47;;;;;;;15.43;12.27;;;;;;;21.80;88.15;99598.50;5056767;28;20045;-77
2021/07/19 00:10:17;;;;;;;17.08;12.38;;;;;;;21.89;87.96;99600.13;5056427;28;20049;-77
2021/07/19 00:12:49;;;;;;;18.00;12.75;;;;;;;21.84;88.19;99604.44;5056822;28;20051;-77
2021/07/19 00:15:22;;;;;;;17.48;11.90;;;;;;;21.97;87.46;99596.50;5056330;28;20460;-77
2021/07/19 00:17:51;;;;;;;18.87;12.07;;;;;;;21.94;87.08;99596.88;5056456;28;20135;-77
2021/07/19 00:20:22;;;;;;;16.75;11.38;;;;;;;21.99;87.33;99594.47;5055877;28;20301;-76
2021/07/19 00:22:52;;;;;;;17.08;11.93;;;;;;;22.03;86.99;99590.38;5056604;28;20041;-76
2021/07/19 00:25:21;;;;;;;17.15;12.10;;;;;;;22.10;86.58;99602.25;5056285;28;20091;-76
2021/07/19 00:27:55;;;;;;;16.17;11.35;;;;;;;22.03;86.88;99601.22;5056213;28;20045;-76
2021/07/19 00:30:24;;;;;;;15.52;11.93;;;;;;;21.99;87.30;99598.00;5056246;28;20145;-77
2021/07/19 00:32:54;;;;;;;16.90;12.48;;;;;;;21.96;87.43;99600.25;5056151;28;20076;-76
2021/07/19 00:35:22;;;;;;;18.75;11.98;;;;;;;21.98;87.55;99603.63;5055899;28;20045;-76
2021/07/19 00:37:53;;;;;;;16.92;12.13;;;;;;;21.95;87.69;99606.72;5054848;28;20049;-78
2021/07/19 00:40:24;;;;;;;15.48;12.27;;;;;;;22.03;87.14;99606.66;5055596;28;20106;-78
2021/07/19 00:42:53;;;;;;;16.65;11.65;;;;;;;21.95;nan;99598.56;5055986;28;20076;-78
2021/07/19 00:45:27;;;;;;;17.48;12.02;;;;;;;21.98;87.87;99593.63;5055386;28;20048;-78
2021/07/19 00:47:57;;;;;;;19.63;12.60;;;;;;;21.97;88.08;99596.50;5055057;28;20053;-77
2021/07/19 00:50:27;;;;;;;15.93;12.32;;;;;;;22.04;87.38;99592.06;5055498;28;20045;-79
2021/07/19 00:52:59;;;;;;;15.52;11.65;;;;;;;22.02;87.39;99587.84;5055867;28;20068;-79
2021/07/19 00:55:31;;;;;;;18.10;12.68;;;;;;;21.99;87.64;99589.03;5055323;28;20479;-79
2021/07/19 00:58:01;;;;;;;;;;;;;;;22.04;87.58;99589.34;5056142;28;20479;-77
2021/07/19 01:00:30;;;;;;;18.75;12.57;;;;;;;22.05;87.42;99572.00;5055573;28;19924;-77
2021/07/19 01:03:00;;;;;;;17.83;12.48;;;;;;;21.96;88.06;99573.09;5055803;28;20403;-77
2021/07/19 01:05:30;;;;;;;16.65;12.50;;;;;;;21.78;89.39;99581.56;5055357;28;20056;-77
2021/07/19 01:08:00;;;;;;;17.42;12.90;;;;;;;21.65;90.37;99574.00;5055431;28;20041;-77
2021/07/19 01:10:28;;;;;;;19.13;13.85;;;;;;;21.86;89.06;99572.50;5055235;28;20040;-77
2021/07/19 01:12:59;;;;;;;15.60;13.02;;;;;;;21.82;89.63;99577.47;5055744;28;20465;-77
2021/07/19 01:15:31;;;;;;;16.25;12.93;;;;;;;21.86;89.34;99578.78;5055190;28;20140;-80
2021/07/19 01:17:59;;;;;;;18.88;12.93;;;;;;;21.90;89.18;99574.66;5055678;28;20142;-78
2021/07/19 01:20:40;;;;;;;18.20;13.15;;;;;;;21.85;89.46;99579.81;5054876;28;20411;-77
2021/07/19 01:23:38;;;;;;;17.25;12.38;;;;;;;21.95;88.97;99576.84;5055185;28;20041;-80
2021/07/19 01:26:31;;;;;;;18.27;12.88;;;;;;;21.95;88.50;99576.84;5032603;28;20557;-79
2021/07/19 01:29:02;;;;;;;;;;;;;;;21.94;88.60;99575.16;5055598;28;20040;-78
2021/07/19 01:31:32;;;;;;;17.10;12.52;;;;;;;21.93;88.57;99573.47;5054925;28;20360;-79
2021/07/19 01:34:03;;;;;;;17.88;13.25;;;;;;;21.83;89.30;99578.31;5054941;28;20037;-80
2021/07/19 01:36:36;;;;;;;23.98;12.88;;;;;;;22.02;87.95;99588.69;5054552;28;20072;-80
2021/07/19 01:39:05;;;;;;;18.48;13.65;;;;;;;22.02;88.54;99577.81;5054985;28;20041;-80
2021/07/19 01:41:35;;;;;;;19.90;13.23;;;;;;;22.02;88.04;99585.13;5054649;28;20152;-80
2021/07/19 01:44:06;;;;;;;17.02;12.73;;;;;;;21.95;88.51;99587.72;5054940;28;20099;-80
2021/07/19 01:46:36;;;;;;;17.05;12.25;;;;;;;22.11;87.30;99584.06;5054885;28;20048;-81
2021/07/19 01:49:26;;;;;;;19.70;13.00;;;;;;;22.03;87.45;99586.81;5054642;28;20080;-80
2021/07/19 01:51:55;;;;;;;16.92;12.65;;;;;;;22.13;86.89;99573.84;5055187;28;20063;-80
2021/07/19 01:54:24;;;;;;;19.27;13.45;;;;;;;22.20;86.41;99578.38;5054490;28;20044;-78
2021/07/19 01:56:53;;;;;;;18.67;13.50;;;;;;;22.22;85.65;99579.03;5054717;28;20052;-78
2021/07/19 01:59:23;;;;;;;16.13;12.70;;;;;;;22.24;85.32;99573.41;5054533;28;20043;-78
2021/07/19 02:01:53;;;;;;;18.17;13.25;;;;;;;22.22;84.94;99579.03;5054881;28;20037;-78
2021/07/19 02:04:21;;;;;;;18.77;13.60;;;;;;;22.15;85.36;99580.78;5054090;28;20040;-78
2021/07/19 02:06:51;;;;;;;19.17;12.82;;;;;;;22.23;84.34;99574.44;5053762;28;20064;-78
2021/07/19 02:09:20;;;;;;;19.10;12.95;;;;;;;22.31;83.33;99581.69;5053979;28;20472;-79
2021/07/19 02:11:49;;;;;;;18.17;13.00;;;;;;;22.27;83.59;99582.03;5054244;28;20068;-78
2021/07/19 02:14:18;;;;;;;20.38;13.60;;;;;;;22.40;82.83;99581.41;5053845;28;20049;-78
2021/07/19 02:16:51;;;;;;;15.57;12.35;;;;;;;22.48;82.10;99569.59;5054171;28;20132;-77
2021/07/19 02:19:20;;;;;;;18.15;13.10;;;;;;;22.42;81.92;99565.78;5053905;28;20037;-78
2021/07/19 02:21:50;;;;;;;19.23;12.73;;;;;;;22.44;81.74;99560.16;5054189;28;20522;-78
2021/07/19 02:24:23;;;;;;;21.30;13.63;;;;;;;22.44;81.23;99571.00;5053243;28;20045;-78
2021/07/19 02:26:53;;;;;;;17.75;12.48;;;;;;;22.50;81.02;99557.53;5053995;28;20055;-78
2021/07/19 02:29:21;;;;;;;15.77;11.82;;;;;;;22.49;80.65;99553.13;5053585;28;20079;-78
2021/07/19 02:31:51;;;;;;;18.77;12.75;;;;;;;22.43;81.15;99561.19;5053903;28;20052;-78
2021/07/19 02:34:22;;;;;;;20.17;13.20;;;;;;;22.34;82.35;99556.84;5052685;28;20452;-77
2021/07/19 02:36:51;;;;;;;16.42;13.18;;;;;;;22.33;83.04;99563.31;5054074;28;20048;-78
2021/07/19 02:39:20;;;;;;;18.33;12.95;;;;;;;22.25;83.98;99565.06;5053509;28;20124;-78
2021/07/19 02:41:49;;;;;;;19.17;12.77;;;;;;;22.19;86.08;99562.25;5053725;28;20391;-80
2021/07/19 02:44:18;;;;;;;22.35;13.40;;;;;;;22.22;85.76;99573.59;5053634;28;20041;-86
2021/07/19 02:46:51;;;;;;;18.55;13.98;;;;;;;22.02;86.97;99571.56;5054175;28;20044;-80
2021/07/19 02:49:20;;;;;;;17.42;13.65;;;;;;;21.90;90.31;99581.97;5053216;28;20037;-81
2021/07/19 02:51:52;;;;;;;19.35;13.82;;;;;;;21.91;88.79;99580.97;5053398;28;20044;-79
2021/07/19 02:54:23;;;;;;;17.38;12.77;;;;;;;22.08;86.83;99593.41;5053044;28;20488;-79
2021/07/19 02:56:53;;;;;;;19.55;13.13;;;;;;;21.86;89.42;99605.09;5053305;28;20124;-79
2021/07/19 02:59:22;;;;;;;20.52;14.13;;;;;;;21.82;91.46;99617.34;5053175;28;20103;-80
2021/07/19 03:01:54;;;;;;;21.63;14.98;;;;;;;21.63;95.99;99643.91;5053650;28;20072;-80
2021/07/19 03:04:26;;;;;;;20.35;14.77;;;;;;;21.68;95.33;99667.78;5053074;28;20052;-81
2021/07/19 03:07:00;;;;;;;20.63;14.40;;;;;;;21.74;96.58;99687.97;5053580;28;20057;-81
2021/07/19 03:09:33;;;;;;;24.15;15.52;;;;;;;21.61;97.77;99683.94;5053143;28;20479;-80
2021/07/19 03:12:03;;;;;;;24.15;16.75;;;;;;;21.56;100.00;99677.38;5053460;28;20446;-80
2021/07/19 03:14:34;;;;;;;28.25;17.75;;;;;;;21.47;100.00;99690.13;5052766;28;20044;-79
2021/07/19 03:17:06;;;;;;;31.77;17.98;;;;;;;21.36;100.00;99683.22;5052810;28;20048;-77
2021/07/19 03:19:36;;;;;;;28.75;17.23;;;;;;;21.35;100.00;99676.09;5052614;28;20045;-77
2021/07/19 03:22:06;;;;;;;25.92;16.23;;;;;;;21.38;100.00;99673.03;5053245;28;20048;-77
2021/07/19 03:24:36;;;;;;;25.05;16.80;;;;;;;21.29;100.00;99681.38;5052712;28;20140;-77
2021/07/19 03:27:05;;;;;;;24.38;16.38;;;;;;;21.21;100.00;99692.19;5052825;28;20495;-78
2021/07/19 03:29:54;;;;;;;25.30;17.00;;;;;;;21.15;100.00;99710.88;5052896;28;20052;-78
2021/07/19 03:32:24;;;;;;;24.02;16.70;;;;;;;21.24;100.00;99725.25;5052644;28;20044;-77
2021/07/19 03:34:54;;;;;;;41.17;21.35;;;;;;;21.24;100.00;99725.25;5052270;28;20086;-77
2021/07/19 03:37:23;;;;;;;32.65;19.35;;;;;;;21.24;100.00;99724.41;5052492;28;20041;-79
2021/07/19 03:39:53;;;;;;;26.13;16.88;;;;;;;21.26;100.00;99716.94;5053060;28;20041;-77
2021/07/19 03:42:22;;;;;;;21.42;14.38;;;;;;;21.32;97.46;99719.81;5052788;28;20041;-77
2021/07/19 03:44:52;;;;;;;20.70;14.43;;;;;;;21.22;100.00;99712.88;5052626;28;20052;-77
2021/07/19 03:47:22;;;;;;;24.02;15.05;;;;;;;21.11;100.00;99704.09;5052772;28;20045;-77
2021/07/19 03:49:52;;;;;;;22.83;15.00;;;;;;;20.93;100.00;99711.56;5052697;28;20107;-77
2021/07/19 03:52:21;;;;;;;22.55;16.45;;;;;;;20.85;100.00;99703.47;5051490;28;20049;-77
2021/07/19 03:54:50;;;;;;;27.50;16.00;;;;;;;20.72;100.00;99697.72;5052552;28;20103;-77
2021/07/19 03:57:19;;;;;;;19.55;14.25;;;;;;;20.60;100.00;99699.09;5052773;28;20426;-77
2021/07/19 03:59:48;;;;;;;23.02;15.45;;;;;;;20.62;100.00;99707.88;5051258;28;20044;-77
2021/07/19 04:02:19;;;;;;;23.60;16.38;;;;;;;20.74;100.00;99706.53;5052514;28;20041;-77
2021/07/19 04:05:02;;;;;;;22.50;15.55;;;;;;;20.74;100.00;99707.34;5052239;28;20041;-77
2021/07/19 04:07:30;;;;;;;25.20;15.37;;;;;;;20.64;100.00;99713.97;5052304;28;20148;-77
2021/07/19 04:10:00;;;;;;;20.83;13.75;;;;;;;20.82;100.00;99714.66;5052638;28;20041;-77
2021/07/19 04:12:28;;;;;;;19.50;13.13;;;;;;;20.91;100.00;99713.63;5052065;28;20049;-77
2021/07/19 04:14:57;;;;;;;20.27;12.82;;;;;;;20.92;100.00;99714.47;5052306;28;20052;-77
2021/07/19 04:17:26;;;;;;;17.92;12.95;;;;;;;20.91;100.00;99713.63;5052053;28;20057;-82
2021/07/19 04:19:57;;;;;;;22.08;14.38;;;;;;;20.70;100.00;99710.59;5052453;28;20045;-82
2021/07/19 04:22:29;;;;;;;20.75;14.48;;;;;;;20.69;100.00;99698.06;5052454;28;20041;-83
2021/07/19 04:24:58;;;;;;;21.30;14.93;;;;;;;20.87;100.00;99693.31;5052520;28;20049;-81
2021/07/19 04:27:26;;;;;;;20.73;15.68;;;;;;;20.85;100.00;99700.78;5051815;28;20377;-79
2021/07/19 04:29:54;;;;;;;20.85;15.02;;;;;;;20.81;100.00;99702.97;5052148;28;20056;-77
2021/07/19 04:32:23;;;;;;;19.88;14.10;;;;;;;20.81;100.00;99699.41;5051982;28;20553;-77
2021/07/19 04:34:51;;;;;;;21.35;14.52;;;;;;;20.67;100.00;99694.69;5052519;28;20064;-77
2021/07/19 04:37:21;;;;;;;22.05;15.23;;;;;;;20.58;100.00;99685.72;5052073;28;20048;-79
2021/07/19 04:39:51;;;;;;;24.88;17.42;;;;;;;20.55;100.00;99676.03;5051869;28;20048;-81
2021/07/19 04:42:19;;;;;;;22.45;16.45;;;;;;;20.55;100.00;99683.31;5052087;28;20045;-80
2021/07/19 04:44:47;;;;;;;21.75;16.13;;;;;;;20.62;100.00;99691.63;5051789;28;20049;-77
2021/07/19 04:47:16;;;;;;;24.83;17.23;;;;;;;20.69;100.00;99681.81;5054897;28;20116;-77
2021/07/19 04:49:44;;;;;;;25.42;17.40;;;;;;;20.74;100.00;99679.41;5055350;28;20052;-77
2021/07/19 04:52:12;;;;;;;24.17;17.23;;;;;;;20.75;100.00;99684.69;5055961;28;20045;-77
2021/07/19 04:54:42;;;;;;;24.73;15.35;;;;;;;20.76;100.00;99682.81;5055027;28;20041;-77
2021/07/19 04:57:14;;;;;;;22.48;15.45;;;;;;;20.83;100.00;99689.22;5055490;28;20037;-77
2021/07/19 04:59:45;;;;;;;25.25;16.77;;;;;;;20.79;100.00;99682.47;5055386;28;20542;-79
2021/07/19 05:02:18;;;;;;;22.15;14.95;;;;;;;20.87;100.00;99679.75;5055938;28;20065;-80
2021/07/19 05:04:49;;;;;;;19.67;15.27;;;;;;;20.81;100.00;99693.97;5055341;28;20040;-77
2021/07/19 05:07:22;;;;;;;18.85;14.57;;;;;;;20.92;100.00;99699.03;5055441;28;20087;-78
2021/07/19 05:09:53;;;;;;;20.30;13.32;;;;;;;20.90;100.00;99706.50;5055277;28;20438;-81
2021/07/19 05:12:23;;;;;;;17.60;13.30;;;;;;;21.02;100.00;99710.53;5055347;28;20040;-80
2021/07/19 05:14:52;;;;;;;20.02;14.18;;;;;;;20.97;100.00;99723.78;5061327;28;20044;-84
2021/07/19 05:17:22;;;;;;;21.10;15.10;;;;;;;20.94;100.00;99734.97;5055167;28;20060;-85
2021/07/19 05:19:51;;;;;;;20.92;15.75;;;;;;;20.91;100.00;99740.72;5055200;28;20037;-78
2021/07/19 05:22:19;;;;;;;24.85;16.13;;;;;;;20.81;100.00;99745.47;5055231;28;20094;-83
2021/07/19 05:24:47;;;;;;;23.80;16.13;;;;;;;20.81;100.00;99750.91;5054943;28;20061;-83
2021/07/19 05:27:17;;;;;;;23.95;16.75;;;;;;;20.79;100.00;99758.38;5055115;28;20051;-77
2021/07/19 05:29:47;;;;;;;27.10;18.08;;;;;;;20.78;100.00;99759.38;5054976;28;20041;-78
2021/07/19 05:32:16;;;;;;;25.58;17.98;;;;;;;20.76;100.00;99756.84;5054932;28;20076;-80
2021/07/19 05:34:44;;;;;;;30.65;18.50;;;;;;;20.84;100.00;99758.69;5054665;28;20136;-77
2021/07/19 05:37:13;;;;;;;26.45;17.73;;;;;;;20.83;100.00;99759.69;5054853;28;20052;-78
2021/07/19 05:39:41;;;;;;;23.38;15.48;;;;;;;20.88;100.00;99760.06;5054460;28;20052;-80
2021/07/19 05:42:09;;;;;;;26.95;16.98;;;;;;;20.92;100.00;99768.69;5054829;28;20041;-80
2021/07/19 05:44:39;;;;;;;21.23;15.60;;;;;;;20.97;100.00;99769.88;5054238;28;20063;-79
2021/07/19 05:47:08;;;;;;;18.38;14.93;;;;;;;20.92;100.00;99785.78;5048045;28;20515;-74
2021/07/19 05:49:37;;;;;;;24.25;15.75;;;;;;;20.92;100.00;99785.78;5041633;28;20522;-75
2021/07/19 05:52:06;;;;;;;25.52;17.80;;;;;;;20.98;100.00;99795.97;5054658;28;20045;-78
2021/07/19 05:54:34;;;;;;;26.38;17.75;;;;;;;20.97;100.00;99797.00;5054082;28;20065;-80
2021/07/19 05:57:03;;;;;;;24.80;16.40;;;;;;;21.03;100.00;99793.56;5056695;28;20045;-77
2021/07/19 05:59:32;;;;;;;23.88;15.80;;;;;;;20.91;100.00;99794.94;5054418;28;20045;-77
2021/07/19 06:02:02;;;;;;;22.60;15.93;;;;;;;20.85;100.00;99792.94;5054583;28;20049;-78
2021/07/19 06:04:30;;;;;;;24.60;17.23;;;;;;;20.80;100.00;99792.56;5054632;28;20043;-73
2021/07/19 06:06:59;;;;;;;25.08;16.88;;;;;;;20.69;100.00;99791.06;5054752;28;20446;-77
2021/07/19 06:09:28;;;;;;;24.42;15.30;;;;;;;20.87;100.00;99799.03;5054723;28;20080;-78
2021/07/19 06:11:57;;;;;;;25.70;17.55;;;;;;;20.80;100.00;99793.41;5054376;28;20445;-77
2021/07/19 06:14:25;;;;;;;24.85;17.08;;;;;;;20.89;100.00;99796.97;5054321;28;20045;-78
2021/07/19 06:16:54;;;;;;;27.13;17.85;;;;;;;20.88;100.00;99798.00;5053905;28;20041;-78
2021/07/19 06:19:23;;;;;;;25.85;17.13;;;;;;;20.97;100.00;99791.56;5054384;28;20408;-78
2021/07/19 06:21:52;;;;;;;23.33;17.08;;;;;;;20.89;100.00;99796.97;5054480;28;20079;-77
2021/07/19 06:24:20;;;;;;;26.45;16.90;;;;;;;20.90;100.00;99793.25;5054181;28;20094;-77
2021/07/19 06:26:48;;;;;;;24.38;17.17;;;;;;;20.85;100.00;99788.34;5054251;28;20103;-76
2021/07/19 06:29:17;;;;;;;24.60;17.83;;;;;;;20.93;100.00;99776.63;5053936;28;20044;-75
2021/07/19 06:31:45;;;;;;;26.30;17.58;;;;;;;21.04;100.00;99765.47;5054118;28;20048;-77
2021/07/19 06:34:15;;;;;;;24.30;17.00;;;;;;;21.18;100.00;99769.34;5054169;28;20123;-76
2021/07/19 06:36:45;;;;;;;22.35;16.92;;;;;;;21.30;100.00;99783.41;5054084;28;20488;-77
2021/07/19 06:39:13;;;;;;;24.77;16.90;;;;;;;21.48;100.00;99796.78;5054000;28;20459;-76
2021/07/19 06:41:42;;;;;;;25.73;17.05;;;;;;;22.13;100.00;99783.84;5053874;28;20049;-77
2021/07/19 06:44:10;;;;;;;21.70;16.45;;;;;;;23.46;96.44;99775.31;5052548;28;20088;-77
2021/07/19 06:46:38;;;;;;;22.33;15.52;;;;;;;24.35;88.66;99768.78;5053478;28;20437;-78
2021/07/19 06:49:07;;;;;;;20.45;14.48;;;;;;;24.18;90.03;99767.28;5053680;28;20045;-77
2021/07/19 06:51:36;;;;;;;20.38;14.02;;;;;;;24.15;88.91;99784.03;5053088;28;20045;-79
2021/07/19 06:54:05;;;;;;;22.10;14.52;;;;;;;25.07;83.10;99798.66;5053606;28;20086;-77
2021/07/19 06:56:34;;;;;;;17.08;13.20;;;;;;;25.68;81.35;99788.00;5053455;28;20052;-77
2021/07/19 06:59:02;;;;;;;19.80;14.30;;;;;;;26.18;79.89;99785.94;5053423;28;20037;-78
2021/07/19 07:01:30;;;;;;;19.25;13.20;;;;;;;26.87;76.32;99770.34;5053043;28;20091;-77
2021/07/19 07:03:59;;;;;;;15.05;11.50;;;;;;;26.06;76.85;99765.72;5053029;28;20051;-78
2021/07/19 07:06:28;;;;;;;16.15;11.32;;;;;;;25.00;82.61;99767.75;5053205;28;20091;-77
2021/07/19 07:08:59;;;;;;;17.40;12.10;;;;;;;25.08;81.40;99758.56;5053233;28;20450;-77
2021/07/19 07:11:29;;;;;;;19.35;11.93;;;;;;;24.77;82.27;99748.84;5053432;28;20049;-77
2021/07/19 07:13:58;;;;;;;17.23;11.35;;;;;;;24.69;81.94;99756.31;5053053;28;20499;-77
2021/07/19 07:16:27;;;;;;;18.70;11.80;;;;;;;24.86;83.80;99755.00;5053222;28;20049;-77
2021/07/19 07:18:56;;;;;;;17.13;11.40;;;;;;;24.81;80.23;99760.22;5051633;28;20453;-78
2021/07/19 07:21:25;;;;;;;16.83;10.65;;;;;;;24.67;81.95;99758.41;5053330;28;20373;-77
2021/07/19 07:23:54;;;;;;;19.15;12.27;;;;;;;24.96;81.95;99746.50;5053096;28;20492;-77
2021/07/19 07:26:29;;;;;;;14.98;11.25;;;;;;;25.19;81.72;99754.44;5053030;28;20115;-77
2021/07/19 07:28:57;;;;;;;17.10;12.73;;;;;;;25.27;81.14;99746.97;5052818;28;20056;-78
2021/07/19 07:31:27;;;;;;;16.73;12.05;;;;;;;25.13;80.75;99744.34;5053040;28;20036;-78
2021/07/19 07:33:57;;;;;;;14.85;11.10;;;;;;;24.82;80.78;99749.13;5053085;28;20459;-77
2021/07/19 07:36:25;;;;;;;15.02;11.55;;;;;;;25.05;79.27;99748.91;5053074;28;20048;-78
2021/07/19 07:38:54;;;;;;;14.32;11.55;;;;;;;24.86;80.93;99759.63;5052805;28;20076;-78
2021/07/19 07:41:23;;;;;;;14.15;10.52;;;;;;;24.57;79.61;99766.06;5052873;28;20033;-78
2021/07/19 07:43:53;;;;;;;15.73;11.27;;;;;;;24.64;79.53;99766.97;5052785;28;20119;-79
2021/07/19 07:46:23;;;;;;;17.30;11.35;;;;;;;24.64;79.82;99766.97;5053047;28;20048;-76
2021/07/19 07:48:51;;;;;;;14.63;11.60;;;;;;;24.41;80.74;99784.34;5052934;28;20056;-76
2021/07/19 07:51:20;;;;;;;14.63;10.82;;;;;;;24.20;82.79;99776.94;5052864;28;20579;-77
2021/07/19 07:53:49;;;;;;;17.95;11.38;;;;;;;23.68;84.38;99777.13;5052841;28;20124;-77
2021/07/19 07:56:17;;;;;;;16.38;11.68;;;;;;;23.92;83.85;99779.53;5052707;28;20095;-76
2021/07/19 07:58:48;;;;;;;15.38;11.50;;;;;;;23.93;83.36;99778.53;5052331;28;20041;-76
2021/07/19 08:01:17;;;;;;;15.75;11.23;;;;;;;23.88;84.66;99789.13;5052991;28;20086;-76
2021/07/19 08:03:47;;;;;;;17.58;12.80;;;;;;;23.73;84.81;99791.00;5052598;28;20049;-76
2021/07/19 08:06:16;;;;;;;18.90;12.43;;;;;;;23.76;84.16;99789.81;5052837;28;20044;-78
2021/07/19 08:08:44;;;;;;;17.85;12.50;;;;;;;23.67;85.71;99792.63;5052606;28;20131;-78
2021/07/19 08:11:13;;;;;;;17.58;12.07;;;;;;;23.90;85.30;99797.94;5052620;28;20037;-78
2021/07/19 08:13:41;;;;;;;15.75;11.57;;;;;;;23.86;85.54;99802.09;5052675;28;20045;-80
2021/07/19 08:16:10;;;;;;;15.70;12.70;;;;;;;23.59;85.32;99797.31;5052716;28;20045;-78
2021/07/19 08:18:40;;;;;;;18.15;12.57;;;;;;;23.62;85.89;99805.94;5052398;28;20407;-78
2021/07/19 08:21:09;;;;;;;15.07;11.75;;;;;;;23.82;85.08;99802.66;5053426;28;20407;-78
2021/07/19 08:23:37;;;;;;;19.80;11.93;;;;;;;23.73;84.46;99806.50;5056302;28;20048;-78
2021/07/19 08:26:08;;;;;;;17.55;11.50;;;;;;;23.69;83.77;99804.16;5056680;28;20103;-78
2021/07/19 08:28:39;;;;;;;17.02;12.73;;;;;;;23.68;83.81;99804.34;5056519;28;20041;-78
2021/07/19 08:31:08;;;;;;;16.42;12.55;;;;;;;23.67;85.09;99811.69;5056552;28;20045;-78
2021/07/19 08:33:37;;;;;;;16.17;12.48;;;;;;;24.07;83.14;99808.66;5056334;28;20102;-77
2021/07/19 08:36:07;;;;;;;15.75;11.10;;;;;;;23.87;81.57;99809.22;5056032;28;20067;-78
2021/07/19 08:38:35;;;;;;;14.88;11.68;;;;;;;24.04;81.68;99812.59;5056173;28;20048;-78
2021/07/19 08:41:03;;;;;;;17.92;11.40;;;;;;;24.03;83.07;99818.22;5055695;28;20045;-78
2021/07/19 08:43:40;;;;;;;14.50;11.65;;;;;;;24.21;82.04;99805.03;5056209;28;20123;-78
2021/07/19 08:46:09;;;;;;;17.05;11.48;;;;;;;24.47;81.10;99805.38;5056196;28;20047;-78
2021/07/19 08:48:37;;;;;;;16.83;11.95;;;;;;;24.75;80.71;99801.91;5055860;28;20037;-76
2021/07/19 08:51:08;;;;;;;17.85;11.52;;;;;;;24.85;78.46;99807.88;5055767;28;20049;-76
2021/07/19 08:53:37;;;;;;;14.13;10.32;;;;;;;25.13;77.58;99815.31;5056102;28;20045;-77
2021/07/19 08:56:08;;;;;;;16.48;11.07;;;;;;;25.44;75.43;99802.09;5055775;28;20059;-76
2021/07/19 08:58:37;;;;;;;13.38;10.45;;;;;;;25.43;73.74;99800.41;5055901;28;20064;-76
2021/07/19 09:01:05;;;;;;;13.63;10.27;;;;;;;25.72;72.47;99801.28;5055403;28;20384;-77
2021/07/19 09:03:34;;;;;;;14.43;10.07;;;;;;;25.31;73.84;99802.84;5055731;28;20037;-76
2021/07/19 09:06:03;;;;;;;15.50;10.48;;;;;;;25.96;72.61;99803.47;5054445;28;20428;-76
2021/07/19 09:08:33;;;;;;;14.95;10.82;;;;;;;25.97;72.51;99805.19;5055900;28;20408;-76
2021/07/19 09:11:11;;;;;;;16.35;10.32;;;;;;;25.79;71.54;99804.88;5055407;28;20041;-76
2021/07/19 09:13:55;;;;;;;13.38;9.68;;;;;;;25.65;73.10;99802.03;5054481;28;20056;-76
2021/07/19 09:16:24;;;;;;;15.52;10.30;;;;;;;25.67;74.18;99805.44;5055658;28;20073;-76
2021/07/19 09:19:07;;;;;;;15.07;10.35;;;;;;;25.86;72.93;99803.00;5055419;28;20107;-77
2021/07/19 09:21:37;;;;;;;16.75;10.07;;;;;;;25.66;73.30;99800.97;5055661;28;20373;-76
2021/07/19 09:24:08;;;;;;;14.15;10.05;;;;;;;25.74;72.74;99799.16;5055135;28;20048;-77
2021/07/19 09:26:37;;;;;;;14.85;10.27;;;;;;;25.68;71.79;99804.38;5055545;28;20041;-76
2021/07/19 09:29:07;;;;;;;15.63;10.68;;;;;;;25.69;73.07;99807.94;5055149;28;20041;-76
2021/07/19 09:31:39;;;;;;;15.88;11.05;;;;;;;25.88;73.13;99798.22;5055161;28;20135;-76
2021/07/19 09:34:14;;;;;;;13.60;10.50;;;;;;;25.64;72.48;99808.53;5053802;28;20480;-76
2021/07/19 09:37:00;;;;;;;13.30;9.90;;;;;;;25.62;73.49;99799.72;5055045;28;20403;-76
2021/07/19 09:39:33;;;;;;;16.85;11.07;;;;;;;25.62;74.23;99796.97;5055035;28;20044;-77
2021/07/19 09:42:10;;;;;;;17.23;10.82;;;;;;;25.44;73.78;99790.34;5054243;28;20373;-76
2021/07/19 09:44:39;;;;;;;14.93;11.15;;;;;;;25.49;73.22;99793.31;5055460;28;20434;-77
2021/07/19 09:47:11;;;;;;;14.73;9.98;;;;;;;25.62;72.67;99794.25;5054546;28;20045;-76
2021/07/19 09:49:40;;;;;;;;;;;;;;;25.72;72.41;99787.59;5055390;28;20037;-76
2021/07/19 09:52:10;;;;;;;12.57;10.10;;;;;;;25.75;71.93;99798.13;5054552;28;19924;-76
2021/07/19 09:54:43;;;;;;;13.05;10.00;;;;;;;25.58;72.45;99789.41;5054992;28;20065;-76
2021/07/19 09:57:13;;;;;;;13.07;10.23;;;;;;;25.77;71.45;99799.63;5054679;28;20467;-77
2021/07/19 09:59:51;;;;;;;15.13;10.55;;;;;;;25.71;71.83;99786.78;5054633;28;20547;-76
2021/07/19 10:02:31;;;;;;;16.92;10.80;;;;;;;25.93;72.04;99787.50;5054841;28;20041;-76
2021/07/19 10:05:00;;;;;;;12.82;10.45;;;;;;;25.91;71.16;99792.34;5053105;28;20053;-77
2021/07/19 10:07:28;;;;;;;13.95;10.15;;;;;;;25.79;72.21;99785.75;5054552;28;20048;-76
2021/07/19 10:09:59;;;;;;;15.43;10.23;;;;;;;25.81;71.47;99792.72;5054102;28;20076;-76
2021/07/19 10:12:28;;;;;;;13.95;10.45;;;;;;;25.47;72.95;99796.22;5054179;28;20055;-75
2021/07/19 10:14:58;;;;;;;14.25;11.05;;;;;;;25.53;73.72;99789.97;5054159;28;20048;-76
2021/07/19 10:17:46;;;;;;;14.02;10.57;;;;;;;25.61;72.86;99787.09;5054333;28;20140;-76
2021/07/19 10:20:15;;;;;;;13.52;10.40;;;;;;;25.79;72.31;99793.97;5053989;28;20052;-77
2021/07/19 10:22:47;;;;;;;15.30;10.50;;;;;;;25.58;72.90;99792.13;5054536;28;20537;-76
2021/07/19 10:25:17;;;;;;;14.23;10.25;;;;;;;25.31;73.68;99785.63;5053842;28;20045;-76
2021/07/19 10:27:47;;;;;;;13.73;10.35;;;;;;;25.33;72.17;99783.56;5054330;28;20056;-76
2021/07/19 10:30:16;;;;;;;13.02;10.35;;;;;;;25.38;72.58;99781.91;5054024;28;20047;-76
2021/07/19 10:32:44;;;;;;;17.15;10.90;;;;;;;25.43;71.57;99794.13;5052985;28;20064;-77
2021/07/19 10:35:13;;;;;;;13.10;10.02;;;;;;;25.44;71.56;99790.34;5054119;28;20041;-76
2021/07/19 10:37:53;;;;;;;15.13;10.57;;;;;;;25.27;71.88;99787.91;5052777;28;20091;-76
2021/07/19 10:40:29;;;;;;;14.35;10.85;;;;;;;25.22;71.89;99786.81;5054022;28;20129;-78
2021/07/19 10:43:06;;;;;;;12.20;10.35;;;;;;;25.11;73.55;99780.03;5053718;28;20507;-76
2021/07/19 10:45:45;;;;;;;14.88;10.18;;;;;;;25.07;75.02;99785.00;5053426;28;20052;-75
2021/07/19 10:48:24;;;;;;;15.40;11.13;;;;;;;24.82;77.08;99787.31;5053671;28;20072;-75
2021/07/19 10:50:54;;;;;;;14.25;10.68;;;;;;;24.33;81.12;99794.53;5052385;28;20470;-82
2021/07/19 10:53:24;;;;;;;14.38;11.27;;;;;;;23.94;84.23;99793.84;5053902;28;20458;-76
2021/07/19 10:56:02;;;;;;;16.90;11.57;;;;;;;23.77;85.34;99805.94;5053314;28;20048;-87
2021/07/19 10:58:40;;;;;;;15.20;11.48;;;;;;;23.52;88.75;99805.34;5053944;28;20438;-77
2021/07/19 11:01:23;;;;;;;18.83;12.18;;;;;;;23.48;89.37;99814.06;5053025;28;20057;-77
2021/07/19 11:03:53;;;;;;;17.47;12.30;;;;;;;23.42;90.07;99815.66;5053865;28;20041;-77
2021/07/19 11:06:32;;;;;;;16.85;12.20;;;;;;;23.49;89.58;99807.59;5053722;28;20041;-76
2021/07/19 11:09:02;;;;;;;16.55;11.95;;;;;;;23.54;89.92;99810.59;5053391;28;20048;-77
2021/07/19 11:11:35;;;;;;;18.10;12.93;;;;;;;23.68;89.34;99815.25;5053578;28;20064;-77
2021/07/19 11:14:05;;;;;;;15.63;11.70;;;;;;;23.37;91.65;99816.22;5053180;28;20099;-77
2021/07/19 11:16:42;;;;;;;19.02;13.40;;;;;;;23.51;91.58;99809.09;5053986;28;20072;-77
2021/07/19 11:19:14;;;;;;;19.50;13.30;;;;;;;23.49;93.04;99810.31;5053261;28;20059;-76
2021/07/19 11:21:43;;;;;;;17.25;12.68;;;;;;;23.33;93.43;99812.16;5053457;28;20041;-77
2021/07/19 11:24:15;;;;;;;17.20;12.50;;;;;;;22.95;95.72;99819.47;5052957;28;20041;-77
2021/07/19 11:26:54;;;;;;;16.73;12.65;;;;;;;22.87;94.91;99814.09;5053217;28;20045;-76
2021/07/19 11:29:32;;;;;;;17.45;12.93;;;;;;;22.86;95.79;99809.69;5053222;28;20563;-77
2021/07/19 11:32:19;;;;;;;20.85;13.15;;;;;;;22.83;96.44;99810.88;5053159;28;20049;-77